aviador You're here:

KOLS Decoded Metar

NOGALES in AZ, USA
Report Time2018-06-24 19:54:00
UTC Time2018-06-24 20:30:52
Flight Rules vfr VFR
Wind150° at 07 kt
W.Decomp.*RWY 21: 2.2 kt HW 6.7 kt LCW
W.Rank150° ranks 12
Current wind is above 150° avg. (6.0)
Visibility9999 m
Phenomena:N/A
Clouds:N/A
Expected CloudBase > 9,200 ft AGL from Temp-Dew spread
CeilingNone
Temp33°C (ISA +26)
Dew Point10°C (24% RH)
Heat Index31.3°C
AAT30.4°C
QNH1017 hPa
Density Alt6,821 ft
Elevation3,885 ft
Report Wrong Elevation
Raw Report
KOLS 241954Z AUTO 15007KT 10SM CLR 33/10 A3004 RMK AO2 SLP094
T03330100=

Extra information for KOLS:More info

Metar Taf Metar & Taf Last 4 Metars F.Rules Stats Wind Profile Meteogram Temp Stats Airport Information Weather charts Add Link Nearby VenuesMetar ALERT Operation Metar Decoded Social comments

AIRNAV info for KOLS